CGBYQ SKSM-TLPC
Flight info
| Callsign | CGBYQ |
|---|---|
| Flight time | N/A |
| Altitude | 25000 |
| Route | UBLAX UL220 PJG UM576 SILVA UA511 ALGUS |
| Aircraft | PC12/L-SDFGRWY/S |
Departure
| Time | N/A |
|---|---|
| Airport | Simón Bolívar International Airport (SKSM) |
Arrival
| Time | 2026-04-24 15:55 |
|---|---|
| Airport | George F. L. Charles Airport (TLPC) |
| Time | Latitude | Longitude | Altitude | Speed | Heading |
|---|---|---|---|---|---|
| 2026-04-24 14:49 | 14.23800 | -65.75231 | 25017 ft | 283 kts | 106° |
| 2026-04-24 14:49 | 14.23330 | -65.73264 | 25016 ft | 283 kts | 106° |
| 2026-04-24 14:49 | 14.22858 | -65.71292 | 25017 ft | 283 kts | 106° |
| 2026-04-24 14:49 | 14.22388 | -65.69322 | 25017 ft | 283 kts | 106° |
| 2026-04-24 14:50 | 14.21917 | -65.67351 | 25016 ft | 283 kts | 106° |
| 2026-04-24 14:50 | 14.21447 | -65.65387 | 25016 ft | 283 kts | 106° |
| 2026-04-24 14:50 | 14.20976 | -65.63419 | 25016 ft | 283 kts | 106° |
| 2026-04-24 14:50 | 14.20504 | -65.61448 | 25017 ft | 283 kts | 106° |
| 2026-04-24 14:51 | 14.20038 | -65.59502 | 25016 ft | 283 kts | 106° |
| 2026-04-24 14:51 | 14.19566 | -65.57533 | 25017 ft | 283 kts | 106° |
| 2026-04-24 14:51 | 14.19093 | -65.55562 | 25017 ft | 283 kts | 106° |
| 2026-04-24 14:51 | 14.18620 | -65.53589 | 25016 ft | 283 kts | 106° |
| 2026-04-24 14:52 | 14.18147 | -65.51615 | 25016 ft | 283 kts | 106° |
| 2026-04-24 14:52 | 14.17673 | -65.49641 | 25016 ft | 284 kts | 106° |
| 2026-04-24 14:52 | 14.17200 | -65.47666 | 25016 ft | 284 kts | 106° |
| 2026-04-24 14:52 | 14.16731 | -65.45714 | 25018 ft | 284 kts | 106° |
| 2026-04-24 14:53 | 14.16256 | -65.43739 | 25017 ft | 284 kts | 106° |
| 2026-04-24 14:53 | 14.15781 | -65.41764 | 25017 ft | 284 kts | 106° |
| 2026-04-24 14:53 | 14.15306 | -65.39789 | 25018 ft | 284 kts | 106° |
| 2026-04-24 14:53 | 14.14832 | -65.37818 | 25018 ft | 284 kts | 106° |
| 2026-04-24 14:54 | 14.14357 | -65.35844 | 25018 ft | 284 kts | 106° |
| 2026-04-24 14:54 | 14.13882 | -65.33869 | 25018 ft | 284 kts | 106° |
| 2026-04-24 14:54 | 14.13407 | -65.31897 | 25018 ft | 284 kts | 106° |
| 2026-04-24 14:54 | 14.12932 | -65.29922 | 25017 ft | 284 kts | 106° |
| 2026-04-24 14:55 | 14.12616 | -65.28615 | 25016 ft | 284 kts | 106° |
| 2026-04-24 14:55 | 14.11981 | -65.25977 | 25017 ft | 284 kts | 106° |
| 2026-04-24 14:55 | 14.11666 | -65.24672 | 25016 ft | 284 kts | 106° |
| 2026-04-24 14:55 | 14.11190 | -65.22699 | 25018 ft | 284 kts | 107° |
| 2026-04-24 14:56 | 14.10714 | -65.20725 | 25017 ft | 284 kts | 106° |
| 2026-04-24 14:56 | 14.10238 | -65.18753 | 25017 ft | 284 kts | 106° |
| 2026-04-24 14:56 | 14.09762 | -65.16780 | 25017 ft | 284 kts | 107° |
| 2026-04-24 14:56 | 14.09284 | -65.14803 | 25017 ft | 284 kts | 107° |
| 2026-04-24 14:57 | 14.08808 | -65.12832 | 25017 ft | 284 kts | 107° |
| 2026-04-24 14:57 | 14.08331 | -65.10861 | 25017 ft | 284 kts | 107° |
| 2026-04-24 14:57 | 14.07881 | -65.08884 | 25017 ft | 283 kts | 103° |
| 2026-04-24 14:57 | 14.07525 | -65.06892 | 25023 ft | 283 kts | 103° |
| 2026-04-24 14:58 | 14.07151 | -65.04905 | 25023 ft | 283 kts | 103° |
| 2026-04-24 14:58 | 14.06776 | -65.02912 | 25023 ft | 284 kts | 103° |
| 2026-04-24 14:58 | 14.06407 | -65.00917 | 25024 ft | 284 kts | 103° |
| 2026-04-24 14:58 | 14.06039 | -64.98919 | 25023 ft | 284 kts | 103° |
| 2026-04-24 14:59 | 14.05674 | -64.96946 | 25023 ft | 284 kts | 103° |
| 2026-04-24 14:59 | 14.05301 | -64.94946 | 25024 ft | 284 kts | 104° |
| 2026-04-24 14:59 | 14.04838 | -64.92977 | 25023 ft | 283 kts | 107° |
| 2026-04-24 14:59 | 14.04379 | -64.91010 | 25023 ft | 283 kts | 106° |
| 2026-04-24 15:00 | 14.03923 | -64.89040 | 25022 ft | 283 kts | 106° |
| 2026-04-24 15:00 | 14.03460 | -64.87069 | 25023 ft | 283 kts | 106° |
| 2026-04-24 15:00 | 14.02995 | -64.85099 | 25022 ft | 283 kts | 106° |
| 2026-04-24 15:00 | 14.02530 | -64.83128 | 25022 ft | 283 kts | 106° |
| 2026-04-24 15:01 | 14.02067 | -64.81159 | 25022 ft | 283 kts | 106° |
| 2026-04-24 15:01 | 14.01602 | -64.79185 | 25022 ft | 283 kts | 106° |
| 2026-04-24 15:01 | 14.01138 | -64.77215 | 25022 ft | 283 kts | 106° |
| 2026-04-24 15:01 | 14.00674 | -64.75247 | 25022 ft | 283 kts | 106° |
| 2026-04-24 15:02 | 14.00211 | -64.73280 | 25022 ft | 283 kts | 106° |
| 2026-04-24 15:02 | 13.99748 | -64.71315 | 25023 ft | 283 kts | 106° |
| 2026-04-24 15:02 | 13.99284 | -64.69347 | 25024 ft | 282 kts | 106° |
| 2026-04-24 15:02 | 13.98820 | -64.67384 | 25023 ft | 282 kts | 106° |
| 2026-04-24 15:03 | 13.98357 | -64.65423 | 25023 ft | 281 kts | 106° |
| 2026-04-24 15:03 | 13.97901 | -64.63489 | 25023 ft | 282 kts | 106° |
| 2026-04-24 15:03 | 13.97438 | -64.61530 | 25023 ft | 281 kts | 106° |
| 2026-04-24 15:03 | 13.96975 | -64.59572 | 25018 ft | 281 kts | 106° |
| 2026-04-24 15:04 | 13.96512 | -64.57615 | 25019 ft | 281 kts | 106° |
| 2026-04-24 15:04 | 13.96051 | -64.55663 | 25018 ft | 281 kts | 106° |
| 2026-04-24 15:04 | 13.95588 | -64.53708 | 25019 ft | 281 kts | 106° |
| 2026-04-24 15:04 | 13.95125 | -64.51753 | 25019 ft | 281 kts | 106° |
| 2026-04-24 15:05 | 13.94662 | -64.49797 | 25019 ft | 281 kts | 106° |
| 2026-04-24 15:05 | 13.94199 | -64.47842 | 25020 ft | 281 kts | 106° |
| 2026-04-24 15:05 | 13.93735 | -64.45885 | 25020 ft | 282 kts | 106° |
| 2026-04-24 15:05 | 13.93271 | -64.43927 | 25021 ft | 282 kts | 106° |
| 2026-04-24 15:06 | 13.92806 | -64.41965 | 25020 ft | 282 kts | 106° |
| 2026-04-24 15:06 | 13.92340 | -64.40003 | 25019 ft | 282 kts | 107° |
| 2026-04-24 15:06 | 13.91875 | -64.38042 | 25018 ft | 282 kts | 107° |
| 2026-04-24 15:06 | 13.91410 | -64.36082 | 25018 ft | 281 kts | 107° |
| 2026-04-24 15:07 | 13.90946 | -64.34127 | 25018 ft | 281 kts | 107° |
| 2026-04-24 15:07 | 13.90482 | -64.32173 | 25019 ft | 281 kts | 107° |
| 2026-04-24 15:07 | 13.90017 | -64.30218 | 25018 ft | 281 kts | 107° |
| 2026-04-24 15:07 | 13.89551 | -64.28268 | 25019 ft | 280 kts | 107° |
| 2026-04-24 15:08 | 13.89082 | -64.26321 | 25019 ft | 280 kts | 107° |
| 2026-04-24 15:08 | 13.88613 | -64.24374 | 25018 ft | 280 kts | 107° |
| 2026-04-24 15:08 | 13.88151 | -64.22451 | 25019 ft | 280 kts | 107° |
| 2026-04-24 15:08 | 13.87683 | -64.20504 | 25018 ft | 280 kts | 107° |
| 2026-04-24 15:09 | 13.87215 | -64.18556 | 25018 ft | 280 kts | 107° |
| 2026-04-24 15:09 | 13.86747 | -64.16609 | 25018 ft | 280 kts | 107° |
| 2026-04-24 15:09 | 13.86279 | -64.14665 | 25019 ft | 280 kts | 107° |
| 2026-04-24 15:09 | 13.85810 | -64.12719 | 25018 ft | 280 kts | 107° |
| 2026-04-24 15:10 | 13.85341 | -64.10769 | 25018 ft | 280 kts | 107° |
| 2026-04-24 15:10 | 13.84873 | -64.08826 | 25018 ft | 280 kts | 107° |
| 2026-04-24 15:10 | 13.84405 | -64.06879 | 25019 ft | 280 kts | 107° |
| 2026-04-24 15:10 | 13.83937 | -64.04939 | 25018 ft | 280 kts | 107° |
| 2026-04-24 15:11 | 13.83466 | -64.02992 | 25019 ft | 280 kts | 107° |
| 2026-04-24 15:11 | 13.82998 | -64.01050 | 25019 ft | 280 kts | 107° |
| 2026-04-24 15:11 | 13.82528 | -63.99104 | 25018 ft | 280 kts | 107° |
| 2026-04-24 15:11 | 13.82059 | -63.97159 | 25019 ft | 280 kts | 107° |
| 2026-04-24 15:12 | 13.81589 | -63.95215 | 25019 ft | 280 kts | 107° |
| 2026-04-24 15:12 | 13.80649 | -63.91326 | 25019 ft | 280 kts | 107° |
| 2026-04-24 15:12 | 13.80185 | -63.89406 | 25018 ft | 280 kts | 107° |
| 2026-04-24 15:13 | 13.79715 | -63.87463 | 25019 ft | 280 kts | 107° |
| 2026-04-24 15:13 | 13.79245 | -63.85518 | 25018 ft | 280 kts | 107° |
| 2026-04-24 15:13 | 13.78775 | -63.83576 | 25018 ft | 280 kts | 107° |
| 2026-04-24 15:13 | 13.78304 | -63.81632 | 25019 ft | 280 kts | 107° |
| 2026-04-24 15:14 | 13.77833 | -63.79690 | 25018 ft | 280 kts | 107° |
| 2026-04-24 15:14 | 13.77363 | -63.77748 | 25018 ft | 280 kts | 107° |
| 2026-04-24 15:14 | 13.76892 | -63.75804 | 25019 ft | 280 kts | 107° |
| 2026-04-24 15:14 | 13.76421 | -63.73861 | 25019 ft | 279 kts | 107° |
| 2026-04-24 15:15 | 13.75949 | -63.71921 | 25018 ft | 280 kts | 107° |
| 2026-04-24 15:15 | 13.75478 | -63.69978 | 25018 ft | 280 kts | 107° |
| 2026-04-24 15:15 | 13.75008 | -63.68040 | 25019 ft | 280 kts | 107° |
| 2026-04-24 15:15 | 13.74537 | -63.66099 | 25018 ft | 279 kts | 107° |
| 2026-04-24 15:16 | 13.74066 | -63.64160 | 25019 ft | 279 kts | 107° |
| 2026-04-24 15:16 | 13.73595 | -63.62222 | 25019 ft | 279 kts | 107° |
| 2026-04-24 15:16 | 13.73123 | -63.60281 | 25018 ft | 280 kts | 107° |
| 2026-04-24 15:16 | 13.72651 | -63.58342 | 25018 ft | 279 kts | 107° |
| 2026-04-24 15:17 | 13.72180 | -63.56403 | 25018 ft | 279 kts | 107° |
| 2026-04-24 15:17 | 13.71708 | -63.54466 | 25019 ft | 279 kts | 107° |
| 2026-04-24 15:17 | 13.71236 | -63.52526 | 25019 ft | 279 kts | 107° |
| 2026-04-24 15:17 | 13.70763 | -63.50586 | 25018 ft | 280 kts | 107° |
| 2026-04-24 15:18 | 13.70291 | -63.48646 | 25018 ft | 280 kts | 107° |
| 2026-04-24 15:18 | 13.69818 | -63.46706 | 25018 ft | 280 kts | 107° |
| 2026-04-24 15:18 | 13.69345 | -63.44764 | 25018 ft | 280 kts | 107° |
| 2026-04-24 15:18 | 13.68872 | -63.42826 | 25019 ft | 279 kts | 107° |
| 2026-04-24 15:19 | 13.68399 | -63.40888 | 25019 ft | 279 kts | 107° |
| 2026-04-24 15:19 | 13.67926 | -63.38950 | 25019 ft | 279 kts | 107° |
| 2026-04-24 15:19 | 13.67452 | -63.37009 | 25018 ft | 280 kts | 107° |
| 2026-04-24 15:19 | 13.66979 | -63.35072 | 25018 ft | 280 kts | 107° |
| 2026-04-24 15:20 | 13.66512 | -63.33159 | 25018 ft | 280 kts | 107° |
| 2026-04-24 15:20 | 13.66032 | -63.31195 | 25018 ft | 280 kts | 107° |
| 2026-04-24 15:20 | 13.65564 | -63.29281 | 25019 ft | 280 kts | 107° |
| 2026-04-24 15:20 | 13.65089 | -63.27341 | 25020 ft | 280 kts | 107° |
| 2026-04-24 15:21 | 13.64615 | -63.25400 | 25020 ft | 280 kts | 107° |
| 2026-04-24 15:21 | 13.64140 | -63.23460 | 25020 ft | 280 kts | 107° |
| 2026-04-24 15:21 | 13.63664 | -63.21519 | 25019 ft | 280 kts | 107° |
| 2026-04-24 15:21 | 13.63190 | -63.19581 | 25018 ft | 280 kts | 107° |
| 2026-04-24 15:22 | 13.62714 | -63.17640 | 25019 ft | 280 kts | 107° |
| 2026-04-24 15:22 | 13.62240 | -63.15703 | 25018 ft | 280 kts | 107° |
| 2026-04-24 15:22 | 13.61764 | -63.13763 | 25019 ft | 280 kts | 107° |
| 2026-04-24 15:23 | 13.60810 | -63.09875 | 25020 ft | 280 kts | 107° |
| 2026-04-24 15:23 | 13.59854 | -63.05982 | 25019 ft | 281 kts | 107° |
| 2026-04-24 15:23 | 13.59382 | -63.04061 | 25020 ft | 281 kts | 107° |
| 2026-04-24 15:24 | 13.57945 | -62.98214 | 25020 ft | 281 kts | 107° |
| 2026-04-24 15:25 | 13.57142 | -62.94948 | 25020 ft | 281 kts | 107° |
| 2026-04-24 15:25 | 13.56027 | -62.90422 | 25019 ft | 281 kts | 107° |
| 2026-04-24 15:26 | 13.54587 | -62.84576 | 25019 ft | 282 kts | 107° |
| 2026-04-24 15:27 | 13.53141 | -62.78720 | 25019 ft | 282 kts | 107° |
| 2026-04-24 15:27 | 13.51698 | -62.72874 | 25019 ft | 281 kts | 107° |
| 2026-04-24 15:28 | 13.49770 | -62.65075 | 25019 ft | 281 kts | 107° |
| 2026-04-24 15:29 | 13.48805 | -62.61176 | 25019 ft | 282 kts | 107° |
| 2026-04-24 15:30 | 13.47363 | -62.55354 | 25020 ft | 281 kts | 107° |
| 2026-04-24 15:31 | 13.45432 | -62.47570 | 25019 ft | 281 kts | 107° |
| 2026-04-24 15:32 | 13.43498 | -62.39786 | 25019 ft | 281 kts | 107° |
| 2026-04-24 15:33 | 13.43485 | -62.32002 | 25030 ft | 286 kts | 64° |
| 2026-04-24 15:33 | 13.46208 | -62.26540 | 25028 ft | 287 kts | 65° |
| 2026-04-24 15:34 | 13.47954 | -62.22849 | 25029 ft | 288 kts | 65° |
| 2026-04-24 15:35 | 13.50612 | -62.17307 | 25002 ft | 289 kts | 65° |
| 2026-04-24 15:35 | 13.52389 | -62.13587 | 24880 ft | 293 kts | 65° |
| 2026-04-24 15:35 | 13.53300 | -62.11679 | 24607 ft | 301 kts | 65° |
| 2026-04-24 15:36 | 13.54228 | -62.09735 | 24309 ft | 306 kts | 65° |
| 2026-04-24 15:36 | 13.56121 | -62.05772 | 23717 ft | 312 kts | 65° |
| 2026-04-24 15:36 | 13.57073 | -62.03777 | 23409 ft | 308 kts | 65° |
| 2026-04-24 15:37 | 13.58004 | -62.01824 | 23069 ft | 301 kts | 65° |
| 2026-04-24 15:37 | 13.58916 | -61.99910 | 22692 ft | 295 kts | 65° |
| 2026-04-24 15:37 | 13.59508 | -61.98670 | 22443 ft | 290 kts | 65° |
| 2026-04-24 15:37 | 13.60684 | -61.96205 | 21926 ft | 283 kts | 65° |
| 2026-04-24 15:38 | 13.61544 | -61.94400 | 21525 ft | 279 kts | 65° |
| 2026-04-24 15:38 | 13.62395 | -61.92615 | 21124 ft | 277 kts | 65° |
| 2026-04-24 15:38 | 13.63239 | -61.90846 | 20725 ft | 275 kts | 65° |
| 2026-04-24 15:38 | 13.64078 | -61.89083 | 20325 ft | 273 kts | 65° |
| 2026-04-24 15:39 | 13.64900 | -61.87360 | 19931 ft | 272 kts | 65° |
| 2026-04-24 15:39 | 13.65741 | -61.85595 | 19530 ft | 271 kts | 65° |
| 2026-04-24 15:39 | 13.66554 | -61.83885 | 19132 ft | 269 kts | 65° |
| 2026-04-24 15:39 | 13.67374 | -61.82165 | 18737 ft | 267 kts | 65° |
| 2026-04-24 15:40 | 13.68188 | -61.80454 | 18361 ft | 265 kts | 65° |
| 2026-04-24 15:40 | 13.68995 | -61.78758 | 17986 ft | 263 kts | 65° |
| 2026-04-24 15:40 | 13.69798 | -61.77070 | 17611 ft | 261 kts | 65° |
| 2026-04-24 15:40 | 13.70596 | -61.75393 | 17230 ft | 260 kts | 65° |
| 2026-04-24 15:41 | 13.71388 | -61.73728 | 16859 ft | 259 kts | 65° |
| 2026-04-24 15:41 | 13.72176 | -61.72070 | 16486 ft | 258 kts | 64° |
| 2026-04-24 15:41 | 13.72964 | -61.70414 | 16110 ft | 256 kts | 64° |
| 2026-04-24 15:41 | 13.73744 | -61.68773 | 15753 ft | 255 kts | 64° |
| 2026-04-24 15:42 | 13.74258 | -61.67691 | 15521 ft | 254 kts | 64° |
| 2026-04-24 15:42 | 13.75030 | -61.66064 | 15169 ft | 252 kts | 64° |
| 2026-04-24 15:42 | 13.76048 | -61.63923 | 14707 ft | 250 kts | 64° |
| 2026-04-24 15:42 | 13.76811 | -61.62315 | 14353 ft | 249 kts | 64° |
| 2026-04-24 15:43 | 13.77571 | -61.60715 | 14010 ft | 248 kts | 64° |
| 2026-04-24 15:43 | 13.78083 | -61.59637 | 13768 ft | 248 kts | 64° |
| 2026-04-24 15:43 | 13.78838 | -61.58048 | 13420 ft | 247 kts | 64° |
| 2026-04-24 15:43 | 13.79580 | -61.56485 | 13074 ft | 246 kts | 64° |
| 2026-04-24 15:44 | 13.80330 | -61.54902 | 12721 ft | 245 kts | 64° |
| 2026-04-24 15:44 | 13.81077 | -61.53328 | 12374 ft | 245 kts | 64° |
| 2026-04-24 15:44 | 13.81822 | -61.51756 | 12021 ft | 244 kts | 64° |
| 2026-04-24 15:44 | 13.82566 | -61.50188 | 11674 ft | 243 kts | 64° |
| 2026-04-24 15:45 | 13.83306 | -61.48627 | 11324 ft | 243 kts | 64° |
| 2026-04-24 15:45 | 13.84044 | -61.47069 | 10975 ft | 242 kts | 64° |
| 2026-04-24 15:45 | 13.84780 | -61.45517 | 10625 ft | 240 kts | 64° |
| 2026-04-24 15:45 | 13.85509 | -61.43980 | 10275 ft | 238 kts | 64° |
| 2026-04-24 15:46 | 13.86232 | -61.42454 | 9925 ft | 237 kts | 65° |
| 2026-04-24 15:46 | 13.86950 | -61.40938 | 9574 ft | 235 kts | 65° |
| 2026-04-24 15:46 | 13.87663 | -61.39430 | 9224 ft | 233 kts | 65° |
| 2026-04-24 15:46 | 13.88371 | -61.37935 | 8875 ft | 232 kts | 65° |
| 2026-04-24 15:47 | 13.89074 | -61.36451 | 8524 ft | 230 kts | 65° |
| 2026-04-24 15:47 | 13.89770 | -61.34980 | 8175 ft | 228 kts | 65° |
| 2026-04-24 15:47 | 13.90463 | -61.33515 | 7824 ft | 226 kts | 65° |
| 2026-04-24 15:47 | 13.91147 | -61.32068 | 7474 ft | 224 kts | 65° |
| 2026-04-24 15:48 | 13.91827 | -61.30633 | 7124 ft | 220 kts | 65° |
| 2026-04-24 15:48 | 13.92489 | -61.29234 | 6773 ft | 216 kts | 66° |
| 2026-04-24 15:48 | 13.93131 | -61.27872 | 6428 ft | 213 kts | 66° |
| 2026-04-24 15:48 | 13.93773 | -61.26511 | 6073 ft | 209 kts | 66° |
| 2026-04-24 15:49 | 13.94404 | -61.25174 | 5726 ft | 207 kts | 66° |
| 2026-04-24 15:49 | 13.95034 | -61.23843 | 5376 ft | 207 kts | 66° |
| 2026-04-24 15:49 | 13.95663 | -61.22516 | 5026 ft | 206 kts | 66° |
| 2026-04-24 15:49 | 13.96248 | -61.21188 | 4670 ft | 201 kts | 73° |
| 2026-04-24 15:50 | 13.96613 | -61.19817 | 4319 ft | 193 kts | 77° |
| 2026-04-24 15:50 | 13.96950 | -61.18516 | 3970 ft | 185 kts | 76° |
| 2026-04-24 15:50 | 13.97280 | -61.17264 | 3619 ft | 177 kts | 76° |
| 2026-04-24 15:50 | 13.97596 | -61.16059 | 3268 ft | 172 kts | 76° |
| 2026-04-24 15:51 | 13.97906 | -61.14888 | 2918 ft | 168 kts | 76° |
| 2026-04-24 15:51 | 13.98210 | -61.13733 | 2567 ft | 166 kts | 77° |
| 2026-04-24 15:51 | 13.98510 | -61.12588 | 2215 ft | 166 kts | 77° |
| 2026-04-24 15:51 | 13.98808 | -61.11459 | 2009 ft | 157 kts | 76° |
| 2026-04-24 15:52 | 13.99079 | -61.10434 | 2002 ft | 141 kts | 77° |
| 2026-04-24 15:52 | 13.99326 | -61.09496 | 1977 ft | 132 kts | 77° |
| 2026-04-24 15:52 | 13.99570 | -61.08565 | 1865 ft | 136 kts | 77° |
| 2026-04-24 15:52 | 13.99818 | -61.07626 | 1726 ft | 136 kts | 77° |
| 2026-04-24 15:53 | 14.00047 | -61.06762 | 1535 ft | 117 kts | 77° |
| 2026-04-24 15:53 | 14.00249 | -61.05997 | 1503 ft | 108 kts | 77° |
| 2026-04-24 15:53 | 14.00446 | -61.05253 | 1502 ft | 107 kts | 78° |
| 2026-04-24 15:53 | 14.00643 | -61.04505 | 1441 ft | 110 kts | 78° |
| 2026-04-24 15:54 | 14.00848 | -61.03724 | 1309 ft | 115 kts | 78° |
| 2026-04-24 15:54 | 14.01058 | -61.02930 | 1209 ft | 112 kts | 79° |
| 2026-04-24 15:54 | 14.01252 | -61.02183 | 963 ft | 110 kts | 79° |
| 2026-04-24 15:54 | 14.01444 | -61.01443 | 539 ft | 104 kts | 80° |
| 2026-04-24 15:55 | 14.01622 | -61.00733 | 206 ft | 99 kts | 76° |
| 2026-04-24 15:55 | 14.01791 | -61.00093 | 65 ft | 87 kts | 72° |
| 2026-04-24 15:55 | 14.01935 | -60.99555 | 25 ft | 62 kts | 76° |
| 2026-04-24 15:55 | 14.02045 | -60.99205 | 21 ft | 35 kts | 69° |
| 2026-04-24 15:56 | 14.02006 | -60.99231 | 21 ft | 20 kts | 260° |
| 2026-04-24 15:56 | 14.01978 | -60.99371 | 24 ft | 9 kts | 257° |
| 2026-04-24 15:56 | 14.01979 | -60.99465 | 25 ft | 17 kts | 284° |
| 2026-04-24 15:56 | 14.02006 | -60.99531 | 26 ft | 7 kts | 311° |
| 2026-04-24 15:57 | 14.02030 | -60.99527 | 24 ft | 3 kts | 135° |